.
WxDataArchive / Data Records for 2008-11-25
2008-11-24 November 2008 2008-11-26

Data Records for Tuesday, 25 November 2008

Time	Temp	Chill	HIndex	Humid	Dewpt	 Wind 	HiWind	WindDir	Rain 	Barom 
-----	----	-----	------	-----	-----	------	------	-------	-----	----- 
00:00	33.1	33.1	33.1	81	27.9	1	2	248	0.00	29.801 
00:05	33.1	33.1	33.1	81	27.9	1	3	248	0.00	29.803 
00:10	33.1	33.1	33.1	81	27.9	1	3	248	0.00	29.803 
00:15	33.1	33.1	33.1	81	27.9	2	5	248	0.00	29.800 
00:20	33.1	33.1	33.1	81	27.9	1	4	248	0.00	29.800 
00:25	33.1	33.1	33.1	81	27.9	2	5	248	0.00	29.799 
00:30	33.1	33.1	33.1	81	27.9	1	5	248	0.00	29.800 
00:35	33.1	33.1	33.1	81	27.9	1	5	248	0.00	29.801 
00:40	33.1	33.1	33.1	81	27.9	1	7	248	0.00	29.802 
00:45	32.9	32.9	32.9	80	27.4	2	7	248	0.00	29.798 
00:50	32.9	32.9	32.9	81	27.7	2	6	248	0.00	29.796 
00:55	32.8	32.8	32.8	81	27.6	2	4	248	0.00	29.796 
01:00	32.7	32.7	32.7	81	27.5	2	6	248	0.00	29.796 
01:05	32.5	32.5	32.5	82	27.6	2	6	270	0.00	29.796 
01:10	32.5	32.5	32.5	83	27.9	1	5	248	0.00	29.796 
01:15	32.4	32.4	32.4	83	27.8	1	3	248	0.00	29.798 
01:20	32.2	32.2	32.2	84	27.9	2	6	270	0.00	29.798 
01:25	32.2	32.2	32.2	84	27.9	2	6	248	0.00	29.797 
01:30	32.1	32.1	32.1	85	28.1	3	5	248	0.00	29.797 
01:35	32.1	32.1	32.1	86	28.4	2	7	248	0.00	29.797 
01:40	31.9	31.9	31.9	86	28.2	2	7	248	0.00	29.797 
01:45	31.9	31.9	31.9	87	28.5	2	4	248	0.00	29.795 
01:50	31.8	31.8	31.8	87	28.4	2	3	248	0.00	29.796 
01:55	31.8	31.8	31.8	87	28.4	2	5	248	0.00	29.797 
02:00	31.8	31.8	31.8	88	28.7	2	7	248	0.00	29.797 
02:05	31.8	31.8	31.8	88	28.7	2	4	248	0.00	29.797 
02:10	31.8	31.8	31.8	88	28.7	3	6	248	0.00	29.796 
02:15	31.8	31.8	31.8	88	28.7	2	6	270	0.00	29.795 
02:20	31.8	31.8	31.8	88	28.7	2	4	248	0.00	29.795 
02:25	31.8	31.8	31.8	88	28.7	1	5	248	0.00	29.797 
02:30	31.8	31.8	31.8	89	28.9	2	5	248	0.00	29.798 
02:35	31.6	31.6	31.6	89	28.7	2	5	248	0.00	29.797 
02:40	31.6	31.6	31.6	89	28.7	1	9	225	0.00	29.798 
02:45	31.6	31.6	31.6	89	28.7	1	3	248	0.00	29.798 
02:50	31.5	31.5	31.5	89	28.6	1	4	248	0.00	29.798 
02:55	31.6	31.6	31.6	90	29.0	2	4	270	0.00	29.798 
03:00	31.5	31.5	31.5	90	28.9	2	5	248	0.00	29.798 
03:05	31.5	31.5	31.5	90	28.9	1	3	248	0.00	29.798 
03:10	31.5	31.5	31.5	90	28.9	2	3	248	0.00	29.798 
03:15	31.6	31.6	31.6	90	29.0	1	3	248	0.00	29.801 
03:20	31.5	31.5	31.5	90	28.9	1	3	248	0.00	29.800 
03:25	31.5	31.5	31.5	90	28.9	2	6	248	0.00	29.798 
03:30	31.3	31.3	31.3	90	28.7	1	3	270	0.00	29.799 
03:35	31.2	31.2	31.2	90	28.6	1	3	248	0.00	29.800 
03:40	31.2	31.2	31.2	90	28.6	1	2	248	0.00	29.803 
03:45	31.2	31.2	31.2	90	28.6	1	3	248	0.00	29.801 
03:50	31.3	31.3	31.3	90	28.7	2	9	248	0.00	29.802 
03:55	31.5	31.5	31.5	90	28.9	2	6	248	0.00	29.801 
04:00	31.3	31.3	31.3	90	28.7	2	3	248	0.00	29.800 
04:05	31.3	31.3	31.3	90	28.7	1	3	248	0.00	29.804 
04:10	31.3	31.3	31.3	90	28.7	1	2	248	0.00	29.805 
04:15	31.2	31.2	31.2	90	28.6	1	4	270	0.00	29.807 
04:20	31.2	31.2	31.2	90	28.6	2	4	248	0.00	29.808 
04:25	31.2	31.2	31.2	90	28.6	2	9	225	0.00	29.807 
04:30	31.0	31.0	31.0	90	28.4	2	4	248	0.00	29.809 
04:35	31.0	31.0	31.0	90	28.4	2	7	270	0.00	29.810 
04:40	31.0	31.0	31.0	90	28.4	2	7	248	0.00	29.812 
04:45	31.2	31.2	31.2	90	28.6	3	5	270	0.00	29.813 
04:50	31.2	31.2	31.2	89	28.3	2	4	270	0.00	29.813 
04:55	31.2	31.2	31.2	89	28.3	2	7	248	0.00	29.814 
05:00	31.3	31.3	31.3	89	28.4	2	7	248	0.00	29.814 
05:05	31.3	31.3	31.3	89	28.4	2	5	270	0.00	29.814 
05:10	31.5	31.5	31.5	89	28.6	3	6	270	0.00	29.812 
05:15	31.5	31.5	31.5	89	28.6	2	5	270	0.00	29.813 
05:20	31.5	31.5	31.5	89	28.6	2	4	248	0.00	29.813 
05:25	31.6	31.6	31.6	89	28.7	2	5	248	0.00	29.813 
05:30	31.6	31.6	31.6	89	28.7	2	4	270	0.00	29.813 
05:35	31.8	31.8	31.8	89	28.9	2	4	270	0.00	29.813 
05:40	31.8	31.8	31.8	89	28.9	2	3	270	0.00	29.814 
05:45	31.9	31.9	31.9	89	29.0	2	7	248	0.00	29.815 
05:50	32.1	32.1	32.1	89	29.2	2	4	270	0.00	29.816 
05:55	32.2	32.2	32.2	89	29.3	2	5	248	0.00	29.817 
06:00	32.4	32.4	32.4	89	29.5	2	7	270	0.00	29.820 
06:05	32.4	32.4	32.4	89	29.5	3	5	270	0.00	29.819 
06:10	32.5	32.5	32.5	89	29.6	3	5	270	0.00	29.821 
06:15	32.7	32.7	32.7	89	29.8	3	6	248	0.00	29.821 
06:20	32.7	32.7	32.7	89	29.8	3	5	270	0.00	29.823 
06:25	32.7	32.7	32.7	89	29.8	2	3	248	0.00	29.824 
06:30	32.8	32.8	32.8	89	29.9	2	6	270	0.00	29.826 
06:35	32.9	32.9	32.9	88	29.7	2	4	270	0.00	29.827 
06:40	33.1	33.1	33.1	88	29.9	2	6	270	0.00	29.828 
06:45	33.1	33.1	33.1	88	29.9	2	4	270	0.00	29.829 
06:50	33.2	33.2	33.2	87	29.8	3	11	270	0.00	29.830 
06:55	33.4	33.4	33.4	87	30.0	3	11	270	0.00	29.831 
07:00	33.5	33.5	33.5	86	29.8	3	7	270	0.00	29.828 
07:05	33.5	33.5	33.5	86	29.8	2	5	270	0.00	29.833 
07:10	33.7	33.7	33.7	85	29.7	3	5	270	0.00	29.837 
07:15	33.7	33.7	33.7	85	29.7	3	7	270	0.00	29.841 
07:20	33.8	33.8	33.8	85	29.8	2	6	270	0.00	29.843 
07:25	34.0	34.0	34.0	85	30.0	3	9	270	0.00	29.843 
07:30	34.0	34.0	34.0	84	29.7	3	5	270	0.00	29.844 
07:35	34.0	34.0	34.0	84	29.7	3	7	270	0.00	29.846 
07:40	34.0	34.0	34.0	84	29.7	3	6	270	0.00	29.847 
07:45	33.8	33.8	33.8	85	29.8	2	6	248	0.00	29.852 
07:50	33.8	33.8	33.8	85	29.8	2	4	248	0.00	29.855 
07:55	34.0	34.0	34.0	85	30.0	3	6	270	0.00	29.858 
08:00	34.0	34.0	34.0	85	30.0	2	4	270	0.00	29.859 
08:05	34.1	34.1	34.1	85	30.1	2	6	292	0.00	29.859 
08:10	34.1	34.1	34.1	85	30.1	2	4	270	0.00	29.861 
08:15	34.1	34.1	34.1	85	30.1	2	4	248	0.00	29.861 
08:20	34.3	34.3	34.3	84	30.0	2	6	270	0.00	29.862 
08:25	34.3	34.3	34.3	84	30.0	2	6	270	0.00	29.864 
08:30	34.4	34.4	34.4	83	29.8	3	6	270	0.00	29.867 
08:35	34.4	34.4	34.4	83	29.8	2	6	248	0.00	29.866 
08:40	34.6	31.1	34.6	82	29.7	4	7	270	0.00	29.870 
08:45	34.6	34.6	34.6	82	29.7	3	9	270	0.00	29.871 
08:50	34.6	34.6	34.6	82	29.7	3	8	270	0.00	29.871 
08:55	34.6	34.6	34.6	82	29.7	3	5	270	0.00	29.873 
09:00	34.7	34.7	34.7	81	29.5	3	7	270	0.00	29.873 
09:05	34.9	34.9	34.9	81	29.7	3	6	270	0.00	29.876 
09:10	34.9	34.9	34.9	81	29.7	3	6	270	0.00	29.877 
09:15	35.0	35.0	35.0	81	29.8	2	6	270	0.00	29.877 
09:20	34.9	31.4	34.9	81	29.7	4	9	270	0.00	29.878 
09:25	34.9	34.9	34.9	82	30.0	3	6	270	0.00	29.881 
09:30	34.7	34.7	34.7	82	29.8	3	6	270	0.00	29.886 
09:35	34.7	34.7	34.7	82	29.8	3	7	270	0.00	29.885 
09:40	34.7	34.7	34.7	82	29.8	3	7	270	0.00	29.887 
09:45	34.7	34.7	34.7	82	29.8	3	7	270	0.00	29.891 
09:50	34.6	34.6	34.6	83	30.0	3	7	270	0.00	29.892 
09:55	34.6	34.6	34.6	83	30.0	2	5	248	0.00	29.894 
10:00	34.4	34.4	34.4	84	30.1	2	6	270	0.00	29.895 
10:05	34.6	34.6	34.6	84	30.3	2	5	270	0.00	29.901 
10:10	34.7	34.7	34.7	84	30.4	2	5	270	0.00	29.905 
10:15	34.9	34.9	34.9	84	30.6	2	6	270	0.00	29.905 
10:20	35.0	35.0	35.0	84	30.7	3	6	270	0.00	29.907 
10:25	35.2	35.2	35.2	84	30.9	2	5	270	0.00	29.908 
10:30	35.2	35.2	35.2	84	30.9	2	4	270	0.00	29.914 
10:35	35.2	35.2	35.2	85	31.2	1	4	270	0.00	29.914 
10:40	35.2	35.2	35.2	85	31.2	3	6	248	0.00	29.915 
10:45	34.9	34.9	34.9	85	30.9	3	6	270	0.00	29.921 
10:50	34.7	34.7	34.7	86	30.9	2	6	315	0.00	29.923 
10:55	34.6	34.6	34.6	87	31.1	3	6	270	0.00	29.924 
11:00	34.3	34.3	34.3	87	30.8	3	6	270	0.00	29.926 
11:05	34.0	34.0	34.0	88	30.8	3	4	270	0.00	29.927 
11:10	34.0	34.0	34.0	89	31.1	1	3	270	0.00	29.928 
11:15	34.1	34.1	34.1	89	31.2	2	4	270	0.00	29.928 
11:20	34.3	34.3	34.3	89	31.4	2	5	270	0.00	29.931 
11:25	34.4	34.4	34.4	89	31.5	2	5	270	0.00	29.928 
11:30	34.3	34.3	34.3	89	31.4	2	4	270	0.01	29.928 
11:35	34.1	34.1	34.1	89	31.2	2	4	270	0.00	29.933 
11:40	34.1	34.1	34.1	90	31.5	1	3	315	0.00	29.938 
11:45	34.0	34.0	34.0	90	31.4	1	3	248	0.00	29.932 
11:50	33.8	33.8	33.8	90	31.2	2	3	248	0.00	29.934 
11:55	34.0	34.0	34.0	90	31.4	1	3	292	0.00	29.933 
12:00	34.0	34.0	34.0	90	31.4	1	3	292	0.00	29.933 
12:05	34.0	34.0	34.0	90	31.4	1	3	292	0.00	29.932 
12:10	34.1	34.1	34.1	90	31.5	0	1	270	0.00	29.933 
12:15	34.3	34.3	34.3	90	31.7	0	2	270	0.00	29.932 
12:20	34.4	34.4	34.4	90	31.8	1	3	248	0.00	29.931 
12:25	34.7	34.7	34.7	89	31.8	1	3	248	0.00	29.930 
12:30	34.9	34.9	34.9	89	32.0	2	4	248	0.00	29.932 
12:35	35.0	35.0	35.0	89	32.1	1	5	270	0.01	29.932 
12:40	35.2	35.2	35.2	88	32.0	2	5	270	0.00	29.934 
12:45	35.3	35.3	35.3	88	32.1	2	5	270	0.00	29.936 
12:50	35.5	35.5	35.5	88	32.3	2	5	270	0.00	29.935 
12:55	35.5	35.5	35.5	88	32.3	2	7	315	0.00	29.934 
13:00	35.5	35.5	35.5	88	32.3	2	5	338	0.00	29.935 
13:05	35.5	35.5	35.5	88	32.3	1	4	338	0.00	29.934 
13:10	35.6	35.6	35.6	88	32.4	1	3	315	0.00	29.932 
13:15	35.8	35.8	35.8	87	32.3	1	4	315	0.00	29.933 
13:20	35.8	35.8	35.8	86	32.0	2	4	338	0.00	29.932 
13:25	35.9	35.9	35.9	85	31.8	2	4	315	0.00	29.931 
13:30	36.0	36.0	36.0	84	31.6	2	5	270	0.00	29.928 
13:35	36.0	36.0	36.0	82	31.0	2	5	270	0.00	29.933 
13:40	36.2	36.2	36.2	81	30.9	2	5	270	0.00	29.932 
13:45	36.0	36.0	36.0	81	30.7	2	6	270	0.00	29.934 
13:50	36.0	36.0	36.0	81	30.7	2	5	315	0.00	29.939 
13:55	36.0	36.0	36.0	80	30.4	2	6	270	0.00	29.939 
14:00	36.0	36.0	36.0	81	30.7	1	4	225	0.00	29.939 
14:05	36.0	36.0	36.0	81	30.7	1	4	270	0.00	29.938 
14:10	36.0	36.0	36.0	81	30.7	2	6	270	0.00	29.939 
14:15	36.0	36.0	36.0	82	31.0	2	5	270	0.00	29.939 
14:20	35.9	35.9	35.9	82	31.0	3	9	248	0.00	29.940 
14:25	35.9	35.9	35.9	82	31.0	2	6	270	0.00	29.939 
14:30	35.9	35.9	35.9	82	31.0	2	4	270	0.00	29.940 
14:35	35.8	35.8	35.8	82	30.9	2	5	270	0.00	29.939 
14:40	35.8	35.8	35.8	82	30.9	2	5	270	0.00	29.939 
14:45	35.8	35.8	35.8	82	30.9	2	5	270	0.00	29.940 
14:50	35.6	35.6	35.6	82	30.7	2	6	315	0.00	29.940 
14:55	35.6	35.6	35.6	82	30.7	2	5	270	0.00	29.940 
15:00	35.8	35.8	35.8	82	30.9	2	5	270	0.00	29.942 
15:05	35.8	35.8	35.8	81	30.6	2	5	270	0.00	29.944 
15:10	35.9	35.9	35.9	81	30.6	2	7	270	0.00	29.943 
15:15	36.0	36.0	36.0	81	30.7	2	7	248	0.00	29.943 
15:20	36.0	36.0	36.0	81	30.7	2	5	270	0.00	29.943 
15:25	36.0	36.0	36.0	81	30.7	2	5	248	0.00	29.945 
15:30	36.2	36.2	36.2	80	30.6	2	6	270	0.00	29.947 
15:35	36.2	36.2	36.2	79	30.3	2	5	248	0.00	29.949 
15:40	36.2	36.2	36.2	79	30.3	2	4	315	0.00	29.952 
15:45	36.2	36.2	36.2	79	30.3	2	5	270	0.00	29.954 
15:50	36.2	36.2	36.2	79	30.3	1	4	270	0.00	29.954 
15:55	36.0	36.0	36.0	78	29.8	2	5	270	0.00	29.953 
16:00	36.0	36.0	36.0	78	29.8	3	6	270	0.00	29.956 
16:05	35.9	35.9	35.9	78	29.7	3	6	270	0.00	29.956 
16:10	35.9	35.9	35.9	78	29.7	3	5	270	0.00	29.955 
16:15	35.9	35.9	35.9	78	29.7	3	5	270	0.00	29.957 
16:20	35.9	35.9	35.9	78	29.7	3	9	270	0.00	29.957 
16:25	35.9	35.9	35.9	77	29.4	3	6	270	0.00	29.958 
16:30	35.8	35.8	35.8	77	29.3	3	6	270	0.00	29.959 
16:35	35.8	35.8	35.8	77	29.3	3	6	270	0.00	29.959 
16:40	35.8	35.8	35.8	77	29.3	3	7	270	0.00	29.959 
16:45	35.8	35.8	35.8	76	29.0	3	6	270	0.00	29.960 
16:50	35.8	35.8	35.8	76	29.0	3	6	270	0.00	29.961 
16:55	35.8	35.8	35.8	75	28.7	3	6	248	0.00	29.962 
17:00	35.6	35.6	35.6	75	28.5	2	6	248	0.00	29.964 
17:05	35.6	35.6	35.6	74	28.1	3	7	270	0.00	29.962 
17:10	35.6	35.6	35.6	74	28.1	3	6	270	0.00	29.967 
17:15	35.6	35.6	35.6	73	27.8	3	7	270	0.00	29.969 
17:20	35.6	35.6	35.6	73	27.8	3	6	270	0.00	29.968 
17:25	35.6	35.6	35.6	73	27.8	3	5	270	0.00	29.970 
17:30	35.6	35.6	35.6	73	27.8	2	5	270	0.00	29.972 
17:35	35.5	35.5	35.5	73	27.7	3	8	270	0.00	29.972 
17:40	35.5	35.5	35.5	73	27.7	3	5	270	0.00	29.972 
17:45	35.5	35.5	35.5	73	27.7	3	5	248	0.00	29.974 
17:50	35.5	35.5	35.5	74	28.0	3	10	270	0.00	29.976 
17:55	35.3	35.3	35.3	74	27.9	3	9	270	0.00	29.978 
18:00	35.3	35.3	35.3	74	27.9	2	5	270	0.00	29.981 
18:05	35.3	35.3	35.3	73	27.5	3	6	270	0.00	29.977 
18:10	35.2	35.2	35.2	73	27.4	3	5	270	0.00	29.979 
18:15	35.2	35.2	35.2	74	27.8	2	4	270	0.00	29.983 
18:20	35.0	35.0	35.0	73	27.2	2	4	248	0.00	29.983 
18:25	35.2	35.2	35.2	73	27.4	3	6	270	0.00	29.985 
18:30	35.2	35.2	35.2	73	27.4	2	4	270	0.00	29.987 
18:35	35.2	35.2	35.2	72	27.1	3	6	270	0.00	29.989 
18:40	35.2	35.2	35.2	73	27.4	2	4	270	0.00	29.989 
18:45	35.2	35.2	35.2	72	27.1	2	6	270	0.00	29.992 
18:50	35.2	35.2	35.2	72	27.1	3	10	270	0.00	29.993 
18:55	35.2	35.2	35.2	72	27.1	2	5	270	0.00	29.994 
19:00	35.2	35.2	35.2	71	26.8	2	5	270	0.00	29.998 
19:05	35.2	35.2	35.2	71	26.8	2	4	270	0.00	29.998 
19:10	35.2	35.2	35.2	71	26.8	2	5	270	0.00	30.002 
19:15	35.2	35.2	35.2	71	26.8	2	6	270	0.00	30.003 
19:20	35.2	35.2	35.2	71	26.8	2	5	270	0.00	30.004 
19:25	35.2	35.2	35.2	71	26.8	2	5	270	0.00	30.004 
19:30	35.2	35.2	35.2	71	26.8	2	4	270	0.00	30.006 
19:35	35.0	35.0	35.0	71	26.6	2	6	270	0.00	30.007 
19:40	35.2	35.2	35.2	70	26.4	3	5	270	0.00	30.007 
19:45	35.2	35.2	35.2	70	26.4	2	6	248	0.00	30.009 
19:50	35.2	35.2	35.2	70	26.4	3	6	270	0.00	30.012 
19:55	35.2	35.2	35.2	70	26.4	3	5	270	0.00	30.015 
20:00	35.2	35.2	35.2	69	26.1	2	4	270	0.00	30.015 
20:05	35.2	35.2	35.2	69	26.1	3	7	270	0.00	30.015 
20:10	35.2	35.2	35.2	69	26.1	2	5	270	0.00	30.016 
20:15	35.0	35.0	35.0	69	25.9	2	4	248	0.00	30.016 
20:20	35.0	35.0	35.0	70	26.2	3	9	248	0.00	30.016 
20:25	35.0	35.0	35.0	69	25.9	3	5	270	0.00	30.016 
20:30	35.0	35.0	35.0	69	25.9	3	6	270	0.00	30.016 
20:35	35.0	35.0	35.0	69	25.9	2	5	270	0.00	30.016 
20:40	35.0	35.0	35.0	69	25.9	3	5	270	0.00	30.016 
20:45	35.0	35.0	35.0	69	25.9	2	5	270	0.00	30.016 
20:50	35.0	35.0	35.0	69	25.9	2	4	270	0.00	30.015 
20:55	34.9	34.9	34.9	68	25.4	2	6	248	0.00	30.015 
21:00	34.9	34.9	34.9	68	25.4	2	9	270	0.00	30.016 
21:05	34.9	34.9	34.9	68	25.4	2	4	270	0.00	30.018 
21:10	34.9	34.9	34.9	68	25.4	2	7	248	0.00	30.017 
21:15	34.9	34.9	34.9	68	25.4	2	4	270	0.00	30.018 
21:20	34.9	34.9	34.9	68	25.4	2	5	248	0.00	30.018 
21:25	34.9	34.9	34.9	68	25.4	2	4	248	0.00	30.018 
21:30	34.9	34.9	34.9	68	25.4	2	6	248	0.00	30.018 
21:35	34.9	34.9	34.9	67	25.1	2	4	270	0.00	30.019 
21:40	34.9	34.9	34.9	68	25.4	1	3	270	0.00	30.017 
21:45	34.9	34.9	34.9	68	25.4	2	6	270	0.00	30.019 
21:50	34.9	34.9	34.9	68	25.4	2	5	248	0.00	30.019 
21:55	34.7	34.7	34.7	68	25.2	1	4	270	0.00	30.019 
22:00	34.9	34.9	34.9	67	25.1	2	3	270	0.00	30.019 
22:05	34.7	34.7	34.7	67	24.9	2	5	248	0.00	30.019 
22:10	34.9	34.9	34.9	67	25.1	2	5	248	0.00	30.020 
22:15	34.9	34.9	34.9	67	25.1	2	4	270	0.00	30.020 
22:20	34.9	34.9	34.9	67	25.1	2	4	270	0.00	30.021 
22:25	34.7	34.7	34.7	67	24.9	2	6	248	0.00	30.020 
22:30	34.7	34.7	34.7	67	24.9	2	5	248	0.00	30.025 
22:35	34.7	34.7	34.7	67	24.9	1	4	248	0.00	30.026 
22:40	34.7	34.7	34.7	67	24.9	1	3	248	0.00	30.025 
22:45	34.7	34.7	34.7	67	24.9	2	4	270	0.00	30.026 
22:50	34.7	34.7	34.7	67	24.9	1	4	270	0.00	30.026 
22:55	34.7	34.7	34.7	68	25.2	1	3	270	0.00	30.026 
23:00	34.6	34.6	34.6	68	25.1	2	5	248	0.00	30.025 
23:05	34.6	34.6	34.6	68	25.1	1	4	248	0.00	30.026 
23:10	34.6	34.6	34.6	68	25.1	1	2	248	0.00	30.029 
23:15	34.6	34.6	34.6	68	25.1	2	5	270	0.00	30.028 
23:20	34.6	34.6	34.6	67	24.8	1	3	270	0.00	30.026 
23:25	34.6	34.6	34.6	67	24.8	1	3	248	0.00	30.026 
23:30	34.6	34.6	34.6	67	24.8	1	3	248	0.00	30.028 
23:35	34.6	34.6	34.6	67	24.8	1	5	248	0.00	30.029 
23:40	34.6	34.6	34.6	67	24.8	1	3	248	0.00	30.030 
23:45	34.6	34.6	34.6	67	24.8	1	4	248	0.00	30.032 
23:50	34.6	34.6	34.6	67	24.8	1	3	270	0.00	30.032 
23:55	34.6	34.6	34.6	67	24.8	1	2	270	0.00	30.031 

CoCoRaHS
IN-AL-39
A2 Web Hosting
Creative Commons License
GoDaddy
search engine by freefind advanced

loaded 2018-11-17 23:24:26 • last modified 2010-11-18 10:43:29
Privacy PolicyDisclaimer
• wx.awcolley.com is powered by PmWiki v.2002016 •
• all content (unless otherwise noted) © 2018 A W Colley